createdAt,value
2023-05-06T00:00:12.371Z,22.2167
2023-05-06T00:01:14.719Z,22.1167
2023-05-06T00:02:16.981Z,19.0583
2023-05-06T00:03:18.690Z,21.1667
2023-05-06T00:04:22.079Z,23.5500
2023-05-06T00:05:23.888Z,22.5000
2023-05-06T00:06:25.616Z,21.9667
2023-05-06T00:07:28.076Z,20.0846
2023-05-06T00:08:30.383Z,21.2545
2023-05-06T00:09:32.661Z,21.3583
2023-05-06T00:10:35.114Z,22.0615
2023-05-06T00:11:38.117Z,20.6917
2023-05-06T00:12:39.676Z,21.7000
2023-05-06T00:13:42.013Z,20.7923
2023-05-06T00:14:44.959Z,20.1000
2023-05-06T00:15:46.657Z,21.0083
2023-05-06T00:16:49.066Z,21.9000
2023-05-06T00:17:51.760Z,20.5500
2023-05-06T00:18:54.090Z,20.9417
2023-05-06T00:19:56.025Z,21.6000
2023-05-06T00:20:58.359Z,21.0077
2023-05-06T00:22:00.692Z,22.9308
2023-05-06T00:23:03.025Z,21.6000
2023-05-06T00:24:05.464Z,20.4385
2023-05-06T00:25:08.134Z,21.8538
2023-05-06T00:26:10.190Z,22.6833
2023-05-06T00:27:12.499Z,22.0583
2023-05-06T00:28:14.812Z,19.9750
2023-05-06T00:29:17.793Z,21.1917
2023-05-06T00:30:21.511Z,21.7833
2023-05-06T00:31:22.351Z,22.6667
2023-05-06T00:32:24.348Z,23.4917
2023-05-06T00:33:26.421Z,24.4250
2023-05-06T00:34:28.979Z,22.9077
2023-05-06T00:35:31.161Z,22.6583
2023-05-06T00:36:33.764Z,21.2583
2023-05-06T00:37:35.791Z,22.1917
2023-05-06T00:38:39.850Z,23.3846
2023-05-06T00:39:41.872Z,24.1667
2023-05-06T00:40:42.894Z,23.6167
2023-05-06T00:41:45.140Z,23.1167
2023-05-06T00:42:47.457Z,23.6417
2023-05-06T00:43:49.813Z,24.2462
2023-05-06T00:44:52.168Z,23.7692
2023-05-06T00:45:54.557Z,23.9846
2023-05-06T00:46:56.783Z,23.3308
2023-05-06T00:47:59.238Z,23.9923
2023-05-06T00:49:01.515Z,24.6583
2023-05-06T00:50:03.817Z,23.3385
2023-05-06T00:51:06.154Z,23.5308
2023-05-06T00:52:08.485Z,24.3615
2023-05-06T00:53:10.821Z,21.8615
2023-05-06T00:54:13.164Z,21.5769
2023-05-06T00:55:15.565Z,23.7000
2023-05-06T00:56:20.017Z,24.2308
2023-05-06T00:57:20.168Z,23.2500
2023-05-06T00:58:22.510Z,24.1182
2023-05-06T00:59:24.879Z,23.9385
2023-05-06T01:00:27.195Z,24.0750
2023-05-06T01:01:29.582Z,22.7077
2023-05-06T01:02:43.282Z,23.2333
2023-05-06T01:03:34.292Z,22.3000
2023-05-06T01:04:36.559Z,21.8000
2023-05-06T01:05:38.866Z,23.4769
2023-05-06T01:06:41.195Z,23.8231
2023-05-06T01:07:43.542Z,24.3077
2023-05-06T01:08:45.885Z,24.2308
2023-05-06T01:09:48.289Z,23.6538
2023-05-06T01:10:50.713Z,24.6308
2023-05-06T01:11:52.975Z,23.6231
2023-05-06T01:12:55.376Z,23.2000
2023-05-06T01:13:57.657Z,24.2333
2023-05-06T01:15:00.033Z,23.2923
2023-05-06T01:16:02.336Z,22.7615
2023-05-06T01:17:04.705Z,22.8846
2023-05-06T01:18:07.051Z,24.8231
2023-05-06T01:19:09.376Z,23.4250
2023-05-06T01:20:11.738Z,23.8455
2023-05-06T01:21:14.014Z,23.4385
2023-05-06T01:22:16.358Z,23.6538
2023-05-06T01:23:18.713Z,23.3769
2023-05-06T01:24:21.054Z,24.1231
2023-05-06T01:25:23.391Z,22.3154
2023-05-06T01:26:25.808Z,23.2077
2023-05-06T01:27:28.145Z,22.2000
2023-05-06T01:28:30.428Z,23.0909
2023-05-06T01:29:32.832Z,21.9538
2023-05-06T01:30:35.105Z,22.6182
2023-05-06T01:31:37.509Z,22.6000
2023-05-06T01:32:39.783Z,22.9667
2023-05-06T01:33:42.114Z,23.1818
2023-05-06T01:34:44.593Z,22.4154
2023-05-06T01:35:46.837Z,22.0833
2023-05-06T01:36:49.147Z,23.4083
2023-05-06T01:37:51.552Z,24.1923
2023-05-06T01:38:53.784Z,22.8083
2023-05-06T01:39:56.144Z,23.6538
2023-05-06T01:40:58.488Z,21.8308
2023-05-06T01:42:00.824Z,21.8250
2023-05-06T01:43:03.181Z,21.0769
2023-05-06T01:44:05.453Z,21.7500
2023-05-06T01:45:08.170Z,21.6923
2023-05-06T01:46:10.357Z,20.2583
2023-05-06T01:47:12.649Z,20.8833
2023-05-06T01:48:14.852Z,22.8167
2023-05-06T01:49:17.199Z,22.7154
2023-05-06T01:50:19.476Z,24.5385
2023-05-06T01:51:21.896Z,23.5769
2023-05-06T01:52:24.183Z,22.9333
2023-05-06T01:53:26.527Z,24.2462
2023-05-06T01:54:28.870Z,22.8077
2023-05-06T01:55:31.198Z,22.6462
2023-05-06T01:56:33.555Z,23.3846
2023-05-06T01:57:35.937Z,22.3769
2023-05-06T01:58:38.209Z,22.5923
2023-05-06T01:59:40.555Z,22.6462
2023-05-06T02:00:42.891Z,22.1692
2023-05-06T02:01:45.283Z,21.6154
2023-05-06T02:02:47.716Z,20.5462
2023-05-06T02:03:50.064Z,22.9917
2023-05-06T02:04:52.232Z,23.2333
2023-05-06T02:05:54.564Z,22.9615
2023-05-06T02:06:56.918Z,23.5417
2023-05-06T02:07:59.209Z,24.0308
2023-05-06T02:09:01.573Z,24.9308
2023-05-06T02:10:03.919Z,24.6077
2023-05-06T02:11:06.253Z,24.8000
2023-05-06T02:12:08.647Z,23.9231
2023-05-06T02:13:11.054Z,23.5000
2023-05-06T02:14:13.257Z,23.0583
2023-05-06T02:15:15.709Z,22.9769
2023-05-06T02:16:17.979Z,22.8250
2023-05-06T02:17:20.369Z,23.5000
2023-05-06T02:18:22.745Z,24.1083
2023-05-06T02:19:24.959Z,21.4333
2023-05-06T02:20:27.342Z,22.0769
2023-05-06T02:21:29.802Z,23.1083
2023-05-06T02:22:31.991Z,22.1000
2023-05-06T02:23:34.318Z,21.3154
2023-05-06T02:24:36.904Z,21.8923
2023-05-06T02:25:39.133Z,22.5091
2023-05-06T02:26:41.462Z,22.8750
2023-05-06T02:27:43.743Z,22.1833
2023-05-06T02:28:46.102Z,20.2167
2023-05-06T02:29:48.348Z,20.7250
2023-05-06T02:30:50.692Z,20.7769
2023-05-06T02:31:53.171Z,23.1385
2023-05-06T02:32:55.422Z,22.3250
2023-05-06T02:33:57.809Z,21.3583
2023-05-06T02:35:00.065Z,20.8545
2023-05-06T02:36:02.809Z,21.6846
2023-05-06T02:37:04.707Z,21.8417
2023-05-06T02:38:07.082Z,22.8538
2023-05-06T02:39:09.572Z,21.8308
2023-05-06T02:40:11.843Z,20.6667
2023-05-06T02:41:14.097Z,20.2417
2023-05-06T02:42:16.614Z,20.0250
2023-05-06T02:43:19.217Z,20.1333
2023-05-06T02:44:21.176Z,21.2167
2023-05-06T02:45:23.465Z,19.0615
2023-05-06T02:46:25.799Z,20.1462
2023-05-06T02:47:28.179Z,21.5154
2023-05-06T02:48:30.491Z,20.8231
2023-05-06T02:49:32.855Z,21.1692
2023-05-06T02:50:35.162Z,19.2692
2023-05-06T02:51:37.496Z,20.0385
2023-05-06T02:52:39.841Z,20.8000
2023-05-06T02:53:42.178Z,21.0308
2023-05-06T02:54:44.530Z,20.3077
2023-05-06T02:55:47.008Z,18.0308
2023-05-06T02:56:49.210Z,20.2167
2023-05-06T02:57:51.552Z,19.7077
2023-05-06T02:58:53.919Z,21.0154
2023-05-06T02:59:56.316Z,20.6615
2023-05-06T03:00:58.592Z,20.7154
2023-05-06T03:02:00.917Z,21.0769
2023-05-06T03:03:03.267Z,22.5545
2023-05-06T03:04:05.632Z,21.1538
2023-05-06T03:05:08.163Z,21.9923
2023-05-06T03:06:10.283Z,21.3000
2023-05-06T03:07:12.614Z,20.9154
2023-05-06T03:08:14.959Z,20.1923
2023-05-06T03:09:17.319Z,20.5455
2023-05-06T03:10:19.644Z,22.0692
2023-05-06T03:11:21.986Z,20.1538
2023-05-06T03:12:24.321Z,21.5154
2023-05-06T03:13:26.657Z,21.0692
2023-05-06T03:14:29.007Z,20.2091
2023-05-06T03:15:31.417Z,21.2077
2023-05-06T03:16:33.678Z,20.8692
2023-05-06T03:17:36.145Z,20.9692
2023-05-06T03:18:38.379Z,21.3167
2023-05-06T03:19:40.724Z,20.3231
2023-05-06T03:20:43.055Z,20.2231
2023-05-06T03:21:45.452Z,20.2077
2023-05-06T03:22:47.727Z,20.6000
2023-05-06T03:23:50.090Z,21.3308
2023-05-06T03:24:52.435Z,21.0846
2023-05-06T03:25:54.749Z,20.3154
2023-05-06T03:26:57.070Z,20.7769
2023-05-06T03:27:59.422Z,20.8308
2023-05-06T03:29:01.783Z,21.8538
2023-05-06T03:30:04.138Z,21.7615
2023-05-06T03:31:06.745Z,20.3308
2023-05-06T03:32:08.809Z,20.5000
2023-05-06T03:33:11.126Z,21.9615
2023-05-06T03:34:13.491Z,21.8462
2023-05-06T03:35:15.860Z,22.0769
2023-05-06T03:36:18.172Z,21.6545
2023-05-06T03:37:20.519Z,21.2923
2023-05-06T03:38:22.842Z,21.2692
2023-05-06T03:39:25.188Z,20.9000
2023-05-06T03:40:27.573Z,21.1846
2023-05-06T03:41:29.891Z,20.0846
2023-05-06T03:42:32.232Z,20.4154
2023-05-06T03:43:34.552Z,21.2308
2023-05-06T03:44:36.892Z,19.9077
2023-05-06T03:45:39.201Z,22.3923
2023-05-06T03:46:41.953Z,20.9538
2023-05-06T03:47:43.932Z,20.1667
2023-05-06T03:48:46.242Z,21.6750
2023-05-06T03:49:48.613Z,20.3231
2023-05-06T03:50:50.959Z,21.0846
2023-05-06T03:51:53.279Z,22.3154
2023-05-06T03:52:55.619Z,20.7846
2023-05-06T03:53:57.957Z,20.9154
2023-05-06T03:55:00.304Z,22.8077
2023-05-06T03:56:02.656Z,21.4923
2023-05-06T03:57:04.979Z,22.8769
2023-05-06T03:58:07.315Z,21.2769
2023-05-06T03:59:09.655Z,21.5154
2023-05-06T04:00:11.970Z,21.6364
2023-05-06T04:01:14.337Z,22.1308
2023-05-06T04:02:16.853Z,20.9769
2023-05-06T04:03:19.089Z,21.3000
2023-05-06T04:04:21.374Z,22.3417
2023-05-06T04:05:23.720Z,21.3692
2023-05-06T04:06:26.058Z,22.3615
2023-05-06T04:07:28.392Z,22.4923
2023-05-06T04:08:30.745Z,20.8167
2023-05-06T04:09:33.088Z,22.5769
2023-05-06T04:10:35.420Z,21.8000
2023-05-06T04:11:37.759Z,22.4615
2023-05-06T04:12:40.106Z,21.6077
2023-05-06T04:13:42.460Z,22.1077
2023-05-06T04:14:45.225Z,22.4231
2023-05-06T04:15:47.824Z,22.0917
2023-05-06T04:16:49.472Z,22.4583
2023-05-06T04:17:52.062Z,21.5769
2023-05-06T04:18:54.162Z,21.0167
2023-05-06T04:19:56.469Z,20.5538
2023-05-06T04:20:58.964Z,23.1500
2023-05-06T04:22:01.508Z,23.0083
2023-05-06T04:23:03.524Z,23.1917
2023-05-06T04:24:06.393Z,23.7750
2023-05-06T04:25:08.401Z,22.6333
2023-05-06T04:26:10.966Z,23.4083
2023-05-06T04:27:13.970Z,23.3500
2023-05-06T04:28:15.654Z,23.7167
2023-05-06T04:29:17.626Z,22.4917
2023-05-06T04:30:19.922Z,23.5462
2023-05-06T04:31:22.272Z,24.0846
2023-05-06T04:32:24.609Z,23.3308
2023-05-06T04:33:26.959Z,24.0000
2023-05-06T04:34:29.301Z,23.2538
2023-05-06T04:35:31.633Z,22.4923
2023-05-06T04:36:33.992Z,22.1417
2023-05-06T04:37:36.513Z,23.1417
2023-05-06T04:38:38.667Z,23.6167
2023-05-06T04:39:41.010Z,23.0909
2023-05-06T04:40:43.480Z,23.4538
2023-05-06T04:41:45.656Z,20.8833
2023-05-06T04:42:48.006Z,21.5818
2023-05-06T04:43:50.306Z,23.2615
2023-05-06T04:44:52.695Z,21.7692
2023-05-06T04:45:55.050Z,21.9538
2023-05-06T04:46:57.383Z,20.7846
2023-05-06T04:47:59.732Z,21.0769
2023-05-06T04:49:02.122Z,20.1385
2023-05-06T04:50:04.422Z,20.7538
2023-05-06T04:51:06.718Z,21.3308
2023-05-06T04:52:09.066Z,21.0846
2023-05-06T04:53:11.400Z,23.9462
2023-05-06T04:54:13.761Z,23.9462
2023-05-06T04:55:16.122Z,23.5538
2023-05-06T04:56:18.434Z,23.8308
2023-05-06T04:57:20.774Z,23.5538
2023-05-06T04:58:23.120Z,24.0692
2023-05-06T04:59:25.482Z,24.4154
2023-05-06T05:00:27.820Z,23.0692
2023-05-06T05:01:30.206Z,22.5538
2023-05-06T05:02:32.573Z,23.1769
2023-05-06T05:03:34.920Z,26.0333
2023-05-06T05:04:37.171Z,24.9833
2023-05-06T05:05:39.530Z,24.4077
2023-05-06T05:06:41.864Z,23.7462
2023-05-06T05:07:44.193Z,24.1077
2023-05-06T05:08:46.551Z,23.9154
2023-05-06T05:09:48.885Z,23.5538
2023-05-06T05:10:51.245Z,23.2000
2023-05-06T05:11:53.568Z,23.3692
2023-05-06T05:12:55.952Z,23.9231
2023-05-06T05:13:59.579Z,25.1000
2023-05-06T05:15:00.717Z,24.9417
2023-05-06T05:16:03.044Z,26.4385
2023-05-06T05:17:05.418Z,25.0750
2023-05-06T05:18:07.820Z,25.9083
2023-05-06T05:19:10.060Z,25.7083
2023-05-06T05:20:12.411Z,24.2000
2023-05-06T05:21:14.760Z,24.3154
2023-05-06T05:22:17.088Z,24.1846
2023-05-06T05:23:19.426Z,24.1615
2023-05-06T05:24:21.765Z,22.5231
2023-05-06T05:25:24.104Z,24.1077
2023-05-06T05:26:26.450Z,23.6231
2023-05-06T05:27:28.801Z,24.7091
2023-05-06T05:28:31.139Z,24.5154
2023-05-06T05:29:33.482Z,25.0692
2023-05-06T05:30:35.819Z,24.4273
2023-05-06T05:31:38.190Z,22.7615
2023-05-06T05:32:40.507Z,23.7154
2023-05-06T05:33:42.889Z,26.1385
2023-05-06T05:34:45.203Z,23.5615
2023-05-06T05:35:47.609Z,21.9667
2023-05-06T05:36:49.873Z,22.2846
2023-05-06T05:37:52.213Z,24.3769
2023-05-06T05:38:54.569Z,23.8545
2023-05-06T05:39:56.899Z,25.0462
2023-05-06T05:40:59.234Z,24.1846
2023-05-06T05:42:01.587Z,24.3231
2023-05-06T05:43:03.916Z,23.3538
2023-05-06T05:44:06.259Z,25.1000
2023-05-06T05:45:08.706Z,24.6167
2023-05-06T05:46:10.951Z,22.5417
2023-05-06T05:47:13.272Z,22.4727
2023-05-06T05:48:15.616Z,23.3000
2023-05-06T05:49:17.967Z,22.4846
2023-05-06T05:50:20.296Z,22.7000
2023-05-06T05:51:22.820Z,22.2615
2023-05-06T05:52:24.978Z,22.2167
2023-05-06T05:53:27.317Z,20.5385
2023-05-06T05:54:29.698Z,21.2538
2023-05-06T05:55:31.995Z,21.6308
2023-05-06T05:56:34.338Z,21.0154
2023-05-06T05:57:37.504Z,20.7692
2023-05-06T05:58:39.062Z,21.5833
2023-05-06T05:59:41.414Z,22.5250
2023-05-06T06:00:44.040Z,21.6500
2023-05-06T06:01:46.465Z,21.5583
2023-05-06T06:02:48.426Z,21.7750
2023-05-06T06:03:50.948Z,21.7923
2023-05-06T06:04:53.249Z,22.7083
2023-05-06T06:05:55.596Z,22.0583
2023-05-06T06:06:57.917Z,22.9083
2023-05-06T06:08:02.210Z,22.2083
2023-05-06T06:09:02.400Z,23.0909
2023-05-06T06:10:04.787Z,23.7308
2023-05-06T06:11:07.168Z,22.5917
2023-05-06T06:12:09.424Z,22.7250
2023-05-06T06:13:11.877Z,24.1769
2023-05-06T06:14:14.171Z,22.8750
2023-05-06T06:15:16.459Z,22.2333
2023-05-06T06:16:18.855Z,22.1000
2023-05-06T06:17:21.677Z,23.3083
2023-05-06T06:18:23.467Z,21.9545
2023-05-06T06:19:25.823Z,22.5250
2023-05-06T06:20:28.154Z,23.5923
2023-05-06T06:21:30.635Z,21.6385
2023-05-06T06:22:32.991Z,22.3667
2023-05-06T06:23:35.241Z,22.2917
2023-05-06T06:24:37.539Z,22.8583
2023-05-06T06:25:39.996Z,22.9750
2023-05-06T06:26:42.277Z,23.2167
2023-05-06T06:27:44.605Z,21.4000
2023-05-06T06:28:47.030Z,21.4750
2023-05-06T06:29:49.205Z,20.8833
2023-05-06T06:30:52.605Z,22.4692
2023-05-06T06:31:54.862Z,22.2083
2023-05-06T06:32:56.483Z,21.4500
2023-05-06T06:33:58.907Z,21.3583
2023-05-06T06:35:00.890Z,22.8583
2023-05-06T06:36:03.232Z,22.2923
2023-05-06T06:37:07.806Z,20.4769
2023-05-06T06:38:12.313Z,24.4417
2023-05-06T06:39:10.239Z,23.0000
2023-05-06T06:40:14.890Z,24.6692
2023-05-06T06:41:15.096Z,23.0083
2023-05-06T06:42:17.789Z,22.1333
2023-05-06T06:43:19.593Z,23.3167
2023-05-06T06:44:22.857Z,22.2846
2023-05-06T06:45:24.811Z,21.7750
2023-05-06T06:46:26.627Z,22.4833
2023-05-06T06:47:29.055Z,21.8615
2023-05-06T06:48:31.366Z,21.4417
2023-05-06T06:49:33.728Z,22.2500
2023-05-06T06:50:35.975Z,22.9909
2023-05-06T06:51:38.310Z,21.1750
2023-05-06T06:52:40.720Z,22.5154
2023-05-06T06:53:43.120Z,23.3333
2023-05-06T06:54:45.334Z,22.8833
2023-05-06T06:55:47.770Z,23.7833
2023-05-06T06:56:50.007Z,23.4000
2023-05-06T06:57:52.345Z,22.9182
2023-05-06T06:58:54.665Z,22.9154
2023-05-06T06:59:57.136Z,23.1692
2023-05-06T07:00:59.406Z,21.4500
2023-05-06T07:02:01.671Z,23.2273
2023-05-06T07:03:04.139Z,21.4846
2023-05-06T07:04:07.227Z,22.2083
2023-05-06T07:05:08.992Z,22.5167
2023-05-06T07:06:11.009Z,23.0083
2023-05-06T07:07:13.511Z,23.4083
2023-05-06T07:08:16.059Z,22.1545
2023-05-06T07:09:18.100Z,23.1917
2023-05-06T07:10:20.730Z,23.0167
2023-05-06T07:11:22.802Z,20.4818
2023-05-06T07:12:25.234Z,23.5083
2023-05-06T07:13:27.438Z,21.7500
2023-05-06T07:14:29.736Z,23.6333
2023-05-06T07:15:32.200Z,21.3154
2023-05-06T07:16:34.409Z,20.4818
2023-05-06T07:17:36.919Z,21.8667
2023-05-06T07:18:39.814Z,21.1667
2023-05-06T07:19:41.422Z,21.3667
2023-05-06T07:20:43.798Z,20.1000
2023-05-06T07:21:46.120Z,18.3917
2023-05-06T07:22:48.471Z,18.2923
2023-05-06T07:23:50.816Z,17.5083
2023-05-06T07:24:53.287Z,16.5750
2023-05-06T07:25:55.539Z,15.7917
2023-05-06T07:26:58.055Z,15.2833
2023-05-06T07:28:00.139Z,17.2083
2023-05-06T07:29:11.842Z,19.4308
2023-05-06T07:30:04.888Z,20.3364
2023-05-06T07:31:07.356Z,19.0417
2023-05-06T07:32:09.589Z,19.6167
2023-05-06T07:33:11.970Z,18.5250
2023-05-06T07:34:14.566Z,19.3250
2023-05-06T07:35:16.536Z,18.3250
2023-05-06T07:36:18.853Z,16.7833
2023-05-06T07:37:21.229Z,15.2167
2023-05-06T07:38:23.558Z,15.3636
2023-05-06T07:39:25.958Z,13.4500
2023-05-06T07:40:28.294Z,14.8583
2023-05-06T07:41:30.551Z,14.5917
2023-05-06T07:42:32.935Z,13.8615
2023-05-06T07:43:35.327Z,10.6462
2023-05-06T07:44:37.588Z,10.9667
2023-05-06T07:45:40.022Z,10.7846
2023-05-06T07:46:42.440Z,11.7500
2023-05-06T07:47:44.687Z,11.4417
2023-05-06T07:48:46.986Z,10.1000
2023-05-06T07:49:49.316Z,10.9417
2023-05-06T07:50:51.965Z,9.6833
2023-05-06T07:51:54.032Z,7.5417
2023-05-06T07:52:56.597Z,6.8417
2023-05-06T07:53:58.762Z,5.4083
2023-05-06T07:55:01.008Z,6.0333
2023-05-06T07:56:03.425Z,12.5250
2023-05-06T07:57:06.159Z,8.3833
2023-05-06T07:58:08.012Z,6.2667
2023-05-06T07:59:10.477Z,5.1833
2023-05-06T08:00:12.878Z,4.6833
2023-05-06T08:01:15.041Z,4.1727
2023-05-06T08:02:17.591Z,4.0462
2023-05-06T08:03:20.219Z,5.7083
2023-05-06T08:04:22.754Z,5.6917
2023-05-06T08:05:25.467Z,4.2417
2023-05-06T08:06:27.395Z,3.7917
2023-05-06T08:07:29.279Z,3.9417
2023-05-06T08:08:31.541Z,4.7667
2023-05-06T08:09:34.030Z,5.0909
2023-05-06T08:10:36.250Z,3.7167
2023-05-06T08:11:39.137Z,4.4833
2023-05-06T08:12:40.879Z,4.1333
2023-05-06T08:13:43.262Z,6.3333
2023-05-06T08:14:47.174Z,3.9583
2023-05-06T08:15:47.961Z,3.4083
2023-05-06T08:16:50.415Z,2.9000
2023-05-06T08:17:52.965Z,3.1727
2023-05-06T08:18:55.454Z,4.4500
2023-05-06T08:19:57.288Z,4.5583
2023-05-06T08:20:59.623Z,5.0167
2023-05-06T08:22:02.285Z,4.0417
2023-05-06T08:23:04.713Z,3.4667
2023-05-06T08:24:06.781Z,3.1583
2023-05-06T08:25:11.006Z,2.7833
2023-05-06T08:26:11.330Z,3.6250
2023-05-06T08:27:15.013Z,4.0083
2023-05-06T08:28:15.958Z,4.5417
2023-05-06T08:29:18.405Z,5.0231
2023-05-06T08:30:20.674Z,3.9000
2023-05-06T08:31:23.028Z,4.1083
2023-05-06T08:32:25.530Z,3.4833
2023-05-06T08:33:27.694Z,3.4000
2023-05-06T08:34:30.024Z,2.8154
2023-05-06T08:35:32.419Z,3.9846
2023-05-06T08:36:34.672Z,3.4000
2023-05-06T08:37:37.167Z,3.6923
2023-05-06T08:38:39.390Z,3.1167
2023-05-06T08:39:41.741Z,3.2154
2023-05-06T08:40:44.054Z,3.1000
2023-05-06T08:41:46.425Z,3.7385
2023-05-06T08:42:48.764Z,3.5583
2023-05-06T08:43:51.073Z,4.8083
2023-05-06T08:44:53.466Z,3.7923
2023-05-06T08:45:55.861Z,3.0615
2023-05-06T08:46:58.142Z,3.6500
2023-05-06T08:48:00.519Z,3.4385
2023-05-06T08:49:02.824Z,3.0250
2023-05-06T08:50:05.170Z,3.3923
2023-05-06T08:51:07.540Z,3.0308
2023-05-06T08:52:09.862Z,2.8917
2023-05-06T08:53:12.259Z,3.5083
2023-05-06T08:54:14.534Z,3.2833
2023-05-06T08:55:17.579Z,3.2846
2023-05-06T08:56:19.253Z,8.8667
2023-05-06T08:57:21.568Z,4.3667
2023-05-06T08:58:23.986Z,7.0818
2023-05-06T08:59:26.328Z,5.8308
2023-05-06T09:00:28.695Z,7.4667
2023-05-06T09:01:31.071Z,4.2750
2023-05-06T09:02:33.424Z,3.3000
2023-05-06T09:03:35.691Z,4.3000
2023-05-06T09:04:38.042Z,3.8077
2023-05-06T09:05:40.368Z,4.1000
2023-05-06T09:06:42.738Z,4.1000
2023-05-06T09:07:45.199Z,3.7667
2023-05-06T09:08:47.401Z,3.1667
2023-05-06T09:09:49.803Z,3.4615
2023-05-06T09:10:52.147Z,3.1667
2023-05-06T09:11:54.468Z,3.1167
2023-05-06T09:12:56.957Z,4.4385
2023-05-06T09:13:59.275Z,3.4667
2023-05-06T09:15:01.547Z,3.2000
2023-05-06T09:16:03.887Z,3.5583
2023-05-06T09:17:06.273Z,3.6692
2023-05-06T09:18:08.689Z,3.3500
2023-05-06T09:19:10.938Z,3.9727
2023-05-06T09:20:13.342Z,3.4583
2023-05-06T09:21:15.658Z,3.3615
2023-05-06T09:22:18.028Z,4.0385
2023-05-06T09:23:20.376Z,3.4154
2023-05-06T09:24:22.787Z,3.5538
2023-05-06T09:25:25.118Z,3.6500
2023-05-06T09:26:27.450Z,3.2500
2023-05-06T09:27:29.762Z,4.5917
2023-05-06T09:28:32.139Z,3.4385
2023-05-06T09:29:34.504Z,3.1615
2023-05-06T09:30:36.829Z,3.1615
2023-05-06T09:31:39.215Z,4.7818
2023-05-06T09:32:41.568Z,3.7167
2023-05-06T09:33:43.858Z,3.0000
2023-05-06T09:34:47.622Z,3.7727
2023-05-06T09:35:48.628Z,3.4833
2023-05-06T09:36:51.140Z,3.1091
2023-05-06T09:38:12.447Z,3.9583
2023-05-06T09:39:03.249Z,6.0286
2023-05-06T09:39:57.955Z,4.0364
2023-05-06T09:41:01.903Z,3.5538
2023-05-06T09:42:02.737Z,4.4250
2023-05-06T09:43:05.076Z,3.7000
2023-05-06T09:44:07.405Z,4.5231
2023-05-06T09:45:10.023Z,4.1538
2023-05-06T09:46:12.077Z,3.3083
2023-05-06T09:47:14.445Z,3.5923
2023-05-06T09:48:18.947Z,3.5846
2023-05-06T09:49:20.777Z,4.3417
2023-05-06T09:50:21.738Z,3.1250
2023-05-06T09:51:23.847Z,4.0500
2023-05-06T09:52:26.194Z,3.1385
2023-05-06T09:53:28.544Z,2.7615
2023-05-06T09:54:30.912Z,3.8923
2023-05-06T09:55:33.258Z,3.3615
2023-05-06T09:56:35.637Z,4.2000
2023-05-06T09:57:37.932Z,3.9462
2023-05-06T09:58:40.628Z,3.1462
2023-05-06T09:59:42.666Z,3.0333
2023-05-06T10:00:45.068Z,2.7769
2023-05-06T10:01:47.416Z,3.1615
2023-05-06T10:02:50.007Z,3.1000
2023-05-06T10:03:52.218Z,3.3250
2023-05-06T10:04:54.698Z,3.4250
2023-05-06T10:05:56.779Z,3.4333
2023-05-06T10:06:59.102Z,4.0385
2023-05-06T10:08:01.433Z,3.4231
2023-05-06T10:09:03.784Z,3.2154
2023-05-06T10:10:06.165Z,2.9077
2023-05-06T10:11:08.515Z,2.9692
2023-05-06T10:12:10.887Z,3.0769
2023-05-06T10:13:13.236Z,3.1077
2023-05-06T10:14:15.569Z,2.8769
2023-05-06T10:15:17.909Z,2.8385
2023-05-06T10:16:20.341Z,2.8154
2023-05-06T10:17:22.638Z,2.8923
2023-05-06T10:18:24.947Z,3.1923
2023-05-06T10:19:27.304Z,2.8385
2023-05-06T10:20:29.643Z,3.1692
2023-05-06T10:21:32.008Z,2.7231
2023-05-06T10:22:34.361Z,3.0000
2023-05-06T10:23:36.698Z,2.6769
2023-05-06T10:24:39.067Z,2.9385
2023-05-06T10:25:41.409Z,2.8615
2023-05-06T10:26:43.774Z,2.8692
2023-05-06T10:27:46.110Z,2.8462
2023-05-06T10:28:48.456Z,2.6917
2023-05-06T10:29:50.797Z,2.8000
2023-05-06T10:30:53.142Z,2.8462
2023-05-06T10:31:55.820Z,3.1615
2023-05-06T10:32:57.918Z,2.6417
2023-05-06T10:34:00.241Z,2.7538
2023-05-06T10:35:02.587Z,2.8769
2023-05-06T10:36:04.941Z,3.4308
2023-05-06T10:37:07.287Z,3.2846
2023-05-06T10:38:09.630Z,4.0846
2023-05-06T10:39:11.980Z,3.1154
2023-05-06T10:40:14.336Z,3.3077
2023-05-06T10:41:16.690Z,3.1231
2023-05-06T10:42:19.050Z,2.8154
2023-05-06T10:43:21.400Z,3.7077
2023-05-06T10:44:23.719Z,3.4846
2023-05-06T10:45:26.105Z,3.0154
2023-05-06T10:46:28.455Z,2.8923
2023-05-06T10:47:30.919Z,2.6462
2023-05-06T10:48:33.131Z,3.4462
2023-05-06T10:49:35.504Z,3.2077
2023-05-06T10:50:37.842Z,2.8462
2023-05-06T10:51:40.206Z,2.7154
2023-05-06T10:52:42.551Z,3.3615
2023-05-06T10:53:44.889Z,3.7154
2023-05-06T10:54:47.266Z,2.9000
2023-05-06T10:55:49.601Z,3.5615
2023-05-06T10:56:51.955Z,3.3000
2023-05-06T10:57:54.288Z,3.7846
2023-05-06T10:58:56.617Z,2.8077
2023-05-06T10:59:58.986Z,3.7077
2023-05-06T11:01:01.381Z,3.4462
2023-05-06T11:02:03.699Z,3.1385
2023-05-06T11:03:06.199Z,3.2385
2023-05-06T11:04:08.395Z,3.1500
2023-05-06T11:05:10.992Z,3.2692
2023-05-06T11:06:13.076Z,2.9250
2023-05-06T11:07:15.416Z,3.7846
2023-05-06T11:08:17.760Z,3.2154
2023-05-06T11:09:20.128Z,3.3923
2023-05-06T11:10:22.471Z,3.1615
2023-05-06T11:11:24.862Z,3.3231
2023-05-06T11:12:27.177Z,2.9154
2023-05-06T11:13:29.655Z,3.5077
2023-05-06T11:14:32.377Z,3.3083
2023-05-06T11:15:34.220Z,3.5083
2023-05-06T11:16:38.684Z,3.9462
2023-05-06T11:17:38.941Z,3.3250
2023-05-06T11:18:41.349Z,3.4769
2023-05-06T11:19:43.640Z,3.4538
2023-05-06T11:20:45.980Z,3.5462
2023-05-06T11:21:50.060Z,3.2385
2023-05-06T11:22:50.684Z,3.9417
2023-05-06T11:23:52.991Z,3.7846
2023-05-06T11:24:55.374Z,3.3538
2023-05-06T11:25:57.722Z,2.8615
2023-05-06T11:27:00.054Z,3.1385
2023-05-06T11:28:02.427Z,4.1462
2023-05-06T11:29:04.743Z,3.1538
2023-05-06T11:30:07.140Z,3.3077
2023-05-06T11:31:09.558Z,3.4615
2023-05-06T11:32:11.801Z,3.2250
2023-05-06T11:33:14.305Z,3.1462
2023-05-06T11:34:16.649Z,3.3167
2023-05-06T11:35:18.865Z,3.2750
2023-05-06T11:36:21.212Z,3.1385
2023-05-06T11:37:23.569Z,3.4231
2023-05-06T11:38:25.876Z,3.1077
2023-05-06T11:39:28.226Z,2.8923
2023-05-06T11:40:30.569Z,4.4615
2023-05-06T11:41:32.940Z,3.8538
2023-05-06T11:42:35.284Z,3.8692
2023-05-06T11:43:37.633Z,5.2923
2023-05-06T11:44:39.970Z,3.7923
2023-05-06T11:45:42.331Z,5.7538
2023-05-06T11:46:44.701Z,4.5077
2023-05-06T11:47:47.152Z,4.2615
2023-05-06T11:48:49.333Z,3.7667
2023-05-06T11:49:51.780Z,5.6615
2023-05-06T11:50:54.063Z,6.2308
2023-05-06T11:51:56.398Z,3.4231
2023-05-06T11:52:58.721Z,3.6154
2023-05-06T11:54:01.107Z,5.3846
2023-05-06T11:55:03.443Z,4.0692
2023-05-06T11:56:05.975Z,3.9846
2023-05-06T11:57:08.160Z,3.5917
2023-05-06T11:58:10.500Z,3.5750
2023-05-06T11:59:12.882Z,3.7385
2023-05-06T12:00:15.775Z,4.5917
2023-05-06T12:01:46.341Z,3.4000
2023-05-06T12:02:48.794Z,3.7692
2023-05-06T12:03:51.218Z,2.6417
2023-05-06T12:04:53.592Z,3.1500
2023-05-06T12:05:56.054Z,3.9667
2023-05-06T12:06:58.388Z,3.0182
2023-05-06T12:08:00.442Z,3.2750
2023-05-06T12:09:02.835Z,3.1692
2023-05-06T12:10:05.184Z,3.2167
2023-05-06T12:11:07.666Z,2.9692
2023-05-06T12:12:09.868Z,3.5250
2023-05-06T12:13:12.274Z,3.8615
2023-05-06T12:14:14.522Z,3.5083
2023-05-06T12:15:16.881Z,2.9000
2023-05-06T12:16:19.321Z,3.1000
2023-05-06T12:17:21.595Z,3.6500
2023-05-06T12:18:23.905Z,4.0538
2023-05-06T12:19:26.294Z,3.0692
2023-05-06T12:20:28.621Z,3.8538
2023-05-06T12:21:31.045Z,3.8077
2023-05-06T12:22:33.314Z,4.1385
2023-05-06T12:23:35.706Z,3.5692
2023-05-06T12:24:38.015Z,3.1769
2023-05-06T12:25:40.345Z,3.9615
2023-05-06T12:26:42.734Z,3.5462
2023-05-06T12:27:45.065Z,3.3692
2023-05-06T12:28:47.388Z,3.8615
2023-05-06T12:29:49.749Z,3.8077
2023-05-06T12:30:52.098Z,3.2923
2023-05-06T12:31:54.494Z,4.1692
2023-05-06T12:32:56.901Z,3.7692
2023-05-06T12:34:01.088Z,4.0417
2023-05-06T12:35:01.492Z,4.0250
2023-05-06T12:36:03.927Z,4.5154
2023-05-06T12:37:06.264Z,3.6250
2023-05-06T12:38:08.620Z,3.7077
2023-05-06T12:39:10.932Z,3.3385
2023-05-06T12:40:13.754Z,3.8462
2023-05-06T12:41:15.854Z,4.2417
2023-05-06T12:42:18.349Z,3.0417
2023-05-06T12:43:20.359Z,4.1083